Time,TemperatureF,DewpointF,PressureIn,WindDirection,WindDirectionDegrees,WindSpeedMPH,WindSpeedGustMPH,Humidity,HourlyPrecipIn,Conditions,Clouds,dailyrainin,SoftwareType,DateUTC
2013-01-21 00:04:00,29.0,14.0,30.11,NW,315,0.0,0.0,53,0.00,,,0.00,,2013-01-21 05:04:00,
2013-01-21 00:12:00,29.0,14.0,30.11,NW,315,0.0,0.0,53,0.00,,,0.00,,2013-01-21 05:12:00,
2013-01-21 00:22:00,28.0,12.0,30.10,NW,315,0.0,0.0,51,0.00,,,0.00,,2013-01-21 05:22:00,
2013-01-21 00:34:00,28.0,12.0,30.10,NW,315,0.0,0.0,50,0.00,,,0.00,,2013-01-21 05:34:00,
2013-01-21 00:42:00,28.0,12.0,30.10,NW,315,0.0,0.0,50,0.00,,,0.00,,2013-01-21 05:42:00,
2013-01-21 00:53:00,28.0,13.0,30.10,NW,315,0.0,0.0,52,0.00,,,0.00,,2013-01-21 05:53:00,
2013-01-21 01:03:00,28.0,11.0,30.10,NW,315,0.0,0.0,49,0.00,,,0.00,,2013-01-21 06:03:00,
2013-01-21 01:13:00,28.0,11.0,30.10,NW,315,0.0,0.0,49,0.00,,,0.00,,2013-01-21 06:13:00,
2013-01-21 01:23:00,28.0,11.0,30.09,NW,315,0.0,0.0,48,0.00,,,0.00,,2013-01-21 06:23:00,
2013-01-21 01:33:00,27.0,11.0,30.09,NW,315,0.0,0.0,51,0.00,,,0.00,,2013-01-21 06:33:00,
2013-01-21 01:43:00,27.0,11.0,30.09,NW,315,0.0,0.0,51,0.00,,,0.00,,2013-01-21 06:43:00,
2013-01-21 01:53:00,27.0,10.0,30.09,NW,315,0.0,0.0,49,0.00,,,0.00,,2013-01-21 06:53:00,
2013-01-21 02:03:00,27.0,11.0,30.09,NW,315,0.0,0.0,51,0.00,,,0.00,,2013-01-21 07:03:00,
2013-01-21 02:13:00,27.0,11.0,30.09,NW,315,0.0,0.0,51,0.00,,,0.00,,2013-01-21 07:13:00,
2013-01-21 02:23:00,26.0,11.0,30.09,NW,315,0.0,0.0,53,0.00,,,0.00,,2013-01-21 07:23:00,
2013-01-21 02:33:00,26.0,14.0,30.09,NW,315,0.0,0.0,60,0.00,,,0.00,,2013-01-21 07:33:00,
2013-01-21 02:42:00,26.0,14.0,30.09,NW,315,0.0,0.0,60,0.00,,,0.00,,2013-01-21 07:42:00,
2013-01-21 02:53:00,26.0,17.0,30.09,NW,315,0.0,0.0,68,0.00,,,0.00,,2013-01-21 07:53:00,
2013-01-21 03:03:00,26.0,17.0,30.09,NW,315,0.0,0.0,68,0.00,,,0.00,,2013-01-21 08:03:00,
2013-01-21 03:14:00,26.0,17.0,30.09,NW,315,0.0,0.0,68,0.00,,,0.00,,2013-01-21 08:14:00,
2013-01-21 03:23:00,26.0,19.0,30.09,NW,315,0.0,0.0,74,0.00,,,0.00,,2013-01-21 08:23:00,
2013-01-21 03:33:00,26.0,19.0,30.09,NW,315,0.0,0.0,73,0.00,,,0.00,,2013-01-21 08:33:00,
2013-01-21 03:42:00,26.0,19.0,30.09,NW,315,0.0,0.0,73,0.00,,,0.00,,2013-01-21 08:42:00,
2013-01-21 03:53:00,26.0,19.0,30.08,NW,315,0.0,0.0,74,0.00,,,0.00,,2013-01-21 08:53:00,
2013-01-21 04:03:00,27.0,20.0,30.07,NW,315,0.0,0.0,75,0.00,,,0.00,,2013-01-21 09:03:00,
2013-01-21 04:12:00,27.0,20.0,30.07,NW,315,0.0,0.0,75,0.00,,,0.00,,2013-01-21 09:12:00,
2013-01-21 04:23:00,27.0,21.0,30.06,NW,315,0.0,0.0,78,0.00,,,0.00,,2013-01-21 09:23:00,
2013-01-21 04:33:00,27.0,19.0,30.06,NW,315,0.0,0.0,72,0.00,,,0.00,,2013-01-21 09:33:00,
2013-01-21 04:42:00,27.0,19.0,30.06,NW,315,0.0,0.0,72,0.00,,,0.00,,2013-01-21 09:42:00,
2013-01-21 04:53:00,27.0,20.0,30.06,NW,315,0.0,0.0,74,0.00,,,0.00,,2013-01-21 09:53:00,
2013-01-21 05:02:00,27.0,19.0,30.06,NW,315,0.0,0.0,70,0.00,,,0.00,,2013-01-21 10:02:00,
2013-01-21 05:12:00,27.0,19.0,30.06,NW,315,0.0,0.0,70,0.00,,,0.00,,2013-01-21 10:12:00,
2013-01-21 05:22:00,27.0,18.0,30.06,NW,315,0.0,0.0,69,0.00,,,0.00,,2013-01-21 10:22:00,
2013-01-21 05:32:00,27.0,17.0,30.06,NW,315,0.0,0.0,65,0.00,,,0.00,,2013-01-21 10:32:00,
2013-01-21 05:43:00,27.0,17.0,30.06,NW,315,0.0,0.0,65,0.00,,,0.00,,2013-01-21 10:43:00,
2013-01-21 05:53:00,27.0,17.0,30.07,NW,315,0.0,0.0,66,0.00,,,0.00,,2013-01-21 10:53:00,
2013-01-21 06:03:00,26.0,17.0,30.07,WNW,291,0.0,0.0,67,0.00,,,0.00,,2013-01-21 11:03:00,
2013-01-21 06:13:00,26.0,17.0,30.07,WNW,291,0.0,0.0,67,0.00,,,0.00,,2013-01-21 11:13:00,
2013-01-21 06:23:00,26.0,16.0,30.07,NW,319,0.0,0.0,66,0.00,,,0.00,,2013-01-21 11:23:00,
2013-01-21 06:33:00,26.0,16.0,30.06,NW,322,1.0,0.0,66,0.00,,,0.00,,2013-01-21 11:33:00,
2013-01-21 06:43:00,26.0,16.0,30.06,NW,322,1.0,0.0,66,0.00,,,0.00,,2013-01-21 11:43:00,
2013-01-21 06:53:00,26.0,17.0,30.06,NW,322,0.0,0.0,67,0.00,,,0.00,,2013-01-21 11:53:00,
2013-01-21 07:02:00,26.0,16.0,30.06,NW,322,0.0,0.0,64,0.00,,,0.00,,2013-01-21 12:02:00,
2013-01-21 07:12:00,26.0,16.0,30.06,NW,322,0.0,0.0,64,0.00,,,0.00,,2013-01-21 12:12:00,
2013-01-21 07:22:00,25.0,15.0,30.06,NW,322,0.0,0.0,66,0.00,,,0.00,,2013-01-21 12:22:00,
2013-01-21 07:33:00,25.0,16.0,30.07,NW,322,0.0,0.0,67,0.00,,,0.00,,2013-01-21 12:33:00,
2013-01-21 07:42:00,25.0,16.0,30.07,NW,322,0.0,0.0,67,0.00,,,0.00,,2013-01-21 12:42:00,
2013-01-21 07:53:00,25.0,16.0,30.07,NW,322,0.0,0.0,67,0.00,,,0.00,,2013-01-21 12:53:00,
2013-01-21 08:03:00,25.0,16.0,30.07,NW,322,0.0,0.0,69,0.00,,,0.00,,2013-01-21 13:03:00,
2013-01-21 08:13:00,25.0,16.0,30.07,NW,322,0.0,0.0,69,0.00,,,0.00,,2013-01-21 13:13:00,
2013-01-21 08:23:00,25.0,15.0,30.08,NW,322,0.0,0.0,64,0.00,,,0.00,,2013-01-21 13:23:00,
2013-01-21 08:33:00,26.0,15.0,30.07,NW,322,0.0,0.0,62,0.00,,,0.00,,2013-01-21 13:33:00,
2013-01-21 08:43:00,26.0,15.0,30.07,NW,322,0.0,0.0,62,0.00,,,0.00,,2013-01-21 13:43:00,
2013-01-21 08:54:00,26.0,14.0,30.08,East,94,1.0,3.0,61,0.00,,,0.00,,2013-01-21 13:54:00,
2013-01-21 09:03:00,26.0,14.0,30.08,South,174,0.0,1.0,61,0.00,,,0.00,,2013-01-21 14:03:00,
2013-01-21 09:12:00,26.0,14.0,30.08,South,174,0.0,1.0,61,0.00,,,0.00,,2013-01-21 14:12:00,
2013-01-21 09:23:00,26.0,14.0,30.09,SW,232,0.0,0.0,61,0.00,,,0.00,,2013-01-21 14:23:00,
2013-01-21 09:33:00,27.0,15.0,30.09,SW,217,1.0,2.0,61,0.00,,,0.00,,2013-01-21 14:33:00,
2013-01-21 09:43:00,27.0,15.0,30.09,SW,217,1.0,2.0,61,0.00,,,0.00,,2013-01-21 14:43:00,
2013-01-21 09:53:00,27.0,14.0,30.10,West,259,6.0,6.0,58,0.00,,,0.00,,2013-01-21 14:53:00,
2013-01-21 10:03:00,27.0,14.0,30.10,West,271,5.0,5.0,58,0.00,,,0.00,,2013-01-21 15:03:00,
2013-01-21 10:13:00,27.0,14.0,30.10,West,271,5.0,5.0,58,0.00,,,0.00,,2013-01-21 15:13:00,
2013-01-21 10:23:00,27.0,13.0,30.10,SW,235,1.0,2.0,55,0.00,,,0.00,,2013-01-21 15:23:00,
2013-01-21 10:33:00,28.0,13.0,30.10,West,266,2.0,2.0,53,0.00,,,0.00,,2013-01-21 15:33:00,
2013-01-21 10:43:00,28.0,13.0,30.10,West,266,2.0,2.0,53,0.00,,,0.00,,2013-01-21 15:43:00,
2013-01-21 10:53:00,29.0,12.0,30.10,SW,235,4.0,4.0,49,0.00,,,0.00,,2013-01-21 15:53:00,
2013-01-21 11:03:00,29.0,14.0,30.10,West,269,6.0,6.0,52,0.00,,,0.00,,2013-01-21 16:03:00,
2013-01-21 11:12:00,29.0,14.0,30.10,West,269,6.0,6.0,52,0.00,,,0.00,,2013-01-21 16:12:00,
2013-01-21 11:23:00,30.0,14.0,30.09,WNW,287,4.0,4.0,50,0.00,,,0.00,,2013-01-21 16:23:00,
2013-01-21 11:33:00,30.0,15.0,30.09,West,276,4.0,5.0,53,0.00,,,0.00,,2013-01-21 16:33:00,
2013-01-21 11:43:00,30.0,15.0,30.09,West,276,4.0,5.0,53,0.00,,,0.00,,2013-01-21 16:43:00,
2013-01-21 11:53:00,30.0,16.0,30.08,WSW,253,4.0,4.0,55,0.00,,,0.00,,2013-01-21 16:53:00,
2013-01-21 12:03:00,31.0,16.0,30.08,West,262,2.0,3.0,53,0.00,,,0.00,,2013-01-21 17:03:00,
2013-01-21 12:12:00,31.0,16.0,30.08,West,262,2.0,3.0,53,0.00,,,0.00,,2013-01-21 17:12:00,
2013-01-21 12:23:00,31.0,15.0,30.06,WSW,245,5.0,5.0,52,0.00,,,0.00,,2013-01-21 17:23:00,
2013-01-21 12:33:00,31.0,16.0,30.06,SSW,193,4.0,4.0,53,0.00,,,0.00,,2013-01-21 17:33:00,
2013-01-21 12:43:00,31.0,16.0,30.06,SSW,193,4.0,4.0,53,0.00,,,0.00,,2013-01-21 17:43:00,
2013-01-21 12:53:00,31.0,15.0,30.05,West,260,6.0,9.0,52,0.00,,,0.00,,2013-01-21 17:53:00,
2013-01-21 13:03:00,31.0,15.0,30.04,SSW,195,6.0,6.0,52,0.00,,,0.00,,2013-01-21 18:03:00,
2013-01-21 13:12:00,31.0,15.0,30.04,SSW,195,6.0,6.0,52,0.00,,,0.00,,2013-01-21 18:12:00,
2013-01-21 13:23:00,32.0,14.0,30.03,WNW,293,4.0,4.0,47,0.00,,,0.00,,2013-01-21 18:23:00,
2013-01-21 13:33:00,31.0,15.0,30.03,WSW,243,5.0,5.0,51,0.00,,,0.00,,2013-01-21 18:33:00,
2013-01-21 13:42:00,31.0,15.0,30.03,WSW,243,5.0,5.0,51,0.00,,,0.00,,2013-01-21 18:42:00,
2013-01-21 13:53:00,32.0,14.0,30.03,WSW,255,5.0,7.0,47,0.00,,,0.00,,2013-01-21 18:53:00,
2013-01-21 14:03:00,32.0,14.0,30.02,WSW,245,6.0,6.0,47,0.00,,,0.00,,2013-01-21 19:03:00,
2013-01-21 14:12:00,31.0,13.0,30.03,WNW,302,6.0,6.0,47,0.00,,,0.00,,2013-01-21 19:12:00,
2013-01-21 14:22:00,31.0,13.0,30.03,WNW,302,6.0,6.0,47,0.00,,,0.00,,2013-01-21 19:22:00,
2013-01-21 14:33:00,32.0,13.0,30.03,SW,232,7.0,7.0,45,0.00,,,0.00,,2013-01-21 19:33:00,
2013-01-21 14:43:00,32.0,13.0,30.03,SW,232,7.0,7.0,45,0.00,,,0.00,,2013-01-21 19:43:00,
2013-01-21 14:53:00,32.0,13.0,30.03,West,262,5.0,5.0,44,0.00,,,0.00,,2013-01-21 19:53:00,
2013-01-21 15:03:00,32.0,10.0,30.02,West,262,9.0,12.0,40,0.00,,,0.00,,2013-01-21 20:03:00,
2013-01-21 15:12:00,32.0,10.0,30.02,West,262,9.0,12.0,40,0.00,,,0.00,,2013-01-21 20:12:00,
2013-01-21 15:23:00,31.0,10.0,30.03,West,263,7.0,7.0,41,0.00,,,0.00,,2013-01-21 20:23:00,
2013-01-21 15:33:00,32.0,12.0,30.03,West,276,3.0,11.0,43,0.00,,,0.00,,2013-01-21 20:33:00,
2013-01-21 15:43:00,32.0,12.0,30.03,West,276,3.0,11.0,43,0.00,,,0.00,,2013-01-21 20:43:00,
2013-01-21 15:53:00,31.0,11.0,30.04,WNW,284,3.0,4.0,43,0.00,,,0.00,,2013-01-21 20:53:00,
2013-01-21 16:04:00,31.0,11.0,30.04,West,277,9.0,9.0,42,0.00,,,0.00,,2013-01-21 21:04:00,
2013-01-21 16:12:00,31.0,11.0,30.04,West,277,9.0,9.0,42,0.00,,,0.00,,2013-01-21 21:12:00,
2013-01-21 16:23:00,30.0,10.0,30.05,WSW,256,6.0,12.0,43,0.00,,,0.00,,2013-01-21 21:23:00,
2013-01-21 16:33:00,30.0,11.0,30.05,West,270,5.0,6.0,44,0.00,,,0.00,,2013-01-21 21:33:00,
2013-01-21 16:43:00,30.0,11.0,30.05,West,270,5.0,6.0,44,0.00,,,0.00,,2013-01-21 21:43:00,
2013-01-21 16:54:00,30.0,10.0,30.05,West,264,5.0,6.0,43,0.00,,,0.00,,2013-01-21 21:54:00,
2013-01-21 17:03:00,29.0,9.0,30.06,West,271,5.0,5.0,43,0.00,,,0.00,,2013-01-21 22:03:00,
2013-01-21 17:13:00,29.0,9.0,30.06,West,271,5.0,5.0,43,0.00,,,0.00,,2013-01-21 22:13:00,
2013-01-21 17:23:00,29.0,10.0,30.06,WSW,240,4.0,5.0,44,0.00,,,0.00,,2013-01-21 22:23:00,
2013-01-21 17:33:00,29.0,8.0,30.06,WSW,253,4.0,5.0,41,0.00,,,0.00,,2013-01-21 22:33:00,
2013-01-21 17:43:00,29.0,8.0,30.06,WSW,253,4.0,5.0,41,0.00,,,0.00,,2013-01-21 22:43:00,
2013-01-21 17:53:00,28.0,7.0,30.06,SSW,211,7.0,7.0,41,0.00,,,0.00,,2013-01-21 22:53:00,
2013-01-21 18:03:00,28.0,7.0,30.06,SW,215,5.0,5.0,40,0.00,,,0.00,,2013-01-21 23:03:00,
2013-01-21 18:13:00,28.0,7.0,30.06,SW,215,5.0,5.0,40,0.00,,,0.00,,2013-01-21 23:13:00,
2013-01-21 18:23:00,27.0,5.0,30.06,West,263,7.0,7.0,39,0.00,,,0.00,,2013-01-21 23:23:00,
2013-01-21 18:33:00,27.0,5.0,30.07,West,266,4.0,5.0,39,0.00,,,0.00,,2013-01-21 23:33:00,
2013-01-21 18:42:00,27.0,5.0,30.07,West,266,4.0,5.0,39,0.00,,,0.00,,2013-01-21 23:42:00,
2013-01-21 18:53:00,27.0,6.0,30.07,WSW,252,5.0,5.0,40,0.00,,,0.00,,2013-01-21 23:53:00,
2013-01-21 19:03:00,26.0,6.0,30.07,WSW,248,5.0,5.0,41,0.00,,,0.00,,2013-01-22 00:03:00,
2013-01-21 19:12:00,26.0,6.0,30.07,WSW,248,5.0,5.0,41,0.00,,,0.00,,2013-01-22 00:12:00,
2013-01-21 19:22:00,26.0,7.0,30.09,WSW,255,1.0,0.0,44,0.00,,,0.00,,2013-01-22 00:22:00,
2013-01-21 19:33:00,25.0,6.0,30.10,WSW,240,4.0,5.0,44,0.00,,,0.00,,2013-01-22 00:33:00,
2013-01-21 19:43:00,25.0,6.0,30.10,WSW,240,4.0,5.0,44,0.00,,,0.00,,2013-01-22 00:43:00,
2013-01-21 19:53:00,24.0,6.0,30.10,SW,228,6.0,6.0,45,0.00,,,0.00,,2013-01-22 00:53:00,
2013-01-21 20:02:00,24.0,6.0,30.10,SW,228,6.0,6.0,45,0.00,,,0.00,,2013-01-22 01:02:00,
2013-01-21 20:12:00,24.0,6.0,30.10,SW,228,6.0,6.0,45,0.00,,,0.00,,2013-01-22 01:12:00,
2013-01-21 20:23:00,24.0,6.0,30.10,SW,222,2.0,0.0,45,0.00,,,0.00,,2013-01-22 01:23:00,
2013-01-21 20:33:00,23.0,5.0,30.11,NW,311,6.0,8.0,45,0.00,,,0.00,,2013-01-22 01:33:00,
2013-01-21 20:43:00,23.0,5.0,30.11,NW,311,6.0,8.0,45,0.00,,,0.00,,2013-01-22 01:43:00,
2013-01-21 20:52:00,23.0,5.0,30.11,WSW,257,7.0,7.0,45,0.00,,,0.00,,2013-01-22 01:52:00,
2013-01-21 21:03:00,23.0,5.0,30.12,West,260,3.0,8.0,45,0.00,,,0.00,,2013-01-22 02:03:00,
2013-01-21 21:12:00,23.0,5.0,30.12,West,260,3.0,8.0,45,0.00,,,0.00,,2013-01-22 02:12:00,
2013-01-21 21:22:00,22.0,5.0,30.13,WSW,255,1.0,5.0,47,0.00,,,0.00,,2013-01-22 02:22:00,
2013-01-21 21:32:00,22.0,6.0,30.13,West,267,7.0,7.0,50,0.00,,,0.00,,2013-01-22 02:32:00,
2013-01-21 21:43:00,22.0,6.0,30.13,West,267,7.0,7.0,50,0.00,,,0.00,,2013-01-22 02:43:00,
2013-01-21 21:53:00,21.0,5.0,30.14,WNW,293,4.0,4.0,50,0.00,,,0.00,,2013-01-22 02:53:00,
2013-01-21 22:03:00,21.0,5.0,30.14,WSW,242,6.0,6.0,49,0.00,,,0.00,,2013-01-22 03:03:00,
2013-01-21 22:12:00,21.0,5.0,30.14,WSW,242,6.0,6.0,49,0.00,,,0.00,,2013-01-22 03:12:00,
2013-01-21 22:22:00,21.0,6.0,30.14,West,267,5.0,5.0,51,0.00,,,0.00,,2013-01-22 03:22:00,
2013-01-21 22:32:00,20.0,5.0,30.15,West,274,4.0,4.0,52,0.00,,,0.00,,2013-01-22 03:32:00,
2013-01-21 22:42:00,20.0,5.0,30.15,West,274,4.0,4.0,52,0.00,,,0.00,,2013-01-22 03:42:00,
2013-01-21 22:53:00,19.0,5.0,30.16,WNW,283,5.0,5.0,54,0.00,,,0.00,,2013-01-22 03:53:00,
2013-01-21 23:03:00,19.0,5.0,30.16,West,270,3.0,3.0,54,0.00,,,0.00,,2013-01-22 04:03:00,
2013-01-21 23:12:00,19.0,5.0,30.16,West,270,3.0,3.0,54,0.00,,,0.00,,2013-01-22 04:12:00,
2013-01-21 23:22:00,19.0,6.0,30.17,West,271,1.0,0.0,55,0.00,,,0.00,,2013-01-22 04:22:00,
2013-01-21 23:33:00,19.0,6.0,30.17,West,269,0.0,0.0,56,0.00,,,0.00,,2013-01-22 04:33:00,
2013-01-21 23:42:00,19.0,6.0,30.17,West,269,0.0,0.0,56,0.00,,,0.00,,2013-01-22 04:42:00,
2013-01-21 23:52:00,18.0,5.0,30.17,West,264,1.0,0.0,55,0.00,,,0.00,,2013-01-22 04:52:00,